createdAt,value
2023-04-10T00:00:38.489Z,97273.41
2023-04-10T00:03:05.059Z,97270.38
2023-04-10T00:05:31.610Z,97268.53
2023-04-10T00:07:57.876Z,97262.59
2023-04-10T00:10:24.228Z,97262.38
2023-04-10T00:12:50.509Z,97255.28
2023-04-10T00:15:16.786Z,97248.63
2023-04-10T00:17:43.108Z,97249.78
2023-04-10T00:20:09.544Z,97248.16
2023-04-10T00:22:35.833Z,97243.06
2023-04-10T00:25:02.093Z,97250.50
2023-04-10T00:27:28.362Z,97248.63
2023-04-10T00:29:54.652Z,97254.22
2023-04-10T00:32:21.120Z,97256.78
2023-04-10T00:34:47.475Z,97248.66
2023-04-10T00:37:13.729Z,97257.50
2023-04-10T00:39:39.982Z,97260.91
2023-04-10T00:42:06.242Z,97262.06
2023-04-10T00:44:32.493Z,97258.25
2023-04-10T00:46:58.741Z,97256.72
2023-04-10T00:49:24.998Z,97256.97
2023-04-10T00:51:51.322Z,97267.75
2023-04-10T00:54:17.589Z,97270.97
2023-04-10T00:56:43.851Z,97267.59
2023-04-10T00:59:10.115Z,97259.13
2023-04-10T01:01:36.484Z,97245.53
2023-04-10T01:04:03.033Z,97252.84
2023-04-10T01:06:29.351Z,97254.47
2023-04-10T01:08:55.624Z,97250.19
2023-04-10T01:11:21.877Z,97249.97
2023-04-10T01:13:48.132Z,97256.69
2023-04-10T01:16:14.409Z,97252.97
2023-04-10T01:18:40.695Z,97255.41
2023-04-10T01:21:06.967Z,97263.66
2023-04-10T01:23:33.226Z,97253.06
2023-04-10T01:25:59.484Z,97260.16
2023-04-10T01:28:25.774Z,97258.97
2023-04-10T01:30:52.194Z,97248.53
2023-04-10T01:33:18.508Z,97253.63
2023-04-10T01:35:44.801Z,97247.13
2023-04-10T01:38:11.101Z,97251.19
2023-04-10T01:40:37.371Z,97251.19
2023-04-10T01:43:03.666Z,97251.19
2023-04-10T01:45:29.942Z,97250.38
2023-04-10T01:47:56.294Z,97251.66
2023-04-10T01:50:22.664Z,97246.09
2023-04-10T01:52:48.945Z,97243.66
2023-04-10T01:55:15.221Z,97249.22
2023-04-10T01:57:41.491Z,97246.31
2023-04-10T02:00:07.882Z,97243.88
2023-04-10T02:02:34.337Z,97235.06
2023-04-10T02:05:00.866Z,97242.03
2023-04-10T02:07:27.174Z,97244.09
2023-04-10T02:09:53.445Z,97255.59
2023-04-10T02:12:19.720Z,97251.31
2023-04-10T02:14:45.967Z,97257.09
2023-04-10T02:17:12.242Z,97257.09
2023-04-10T02:19:38.523Z,97255.47
2023-04-10T02:22:04.840Z,97253.03
2023-04-10T02:24:31.113Z,97254.31
2023-04-10T02:26:57.385Z,97248.16
2023-04-10T02:29:23.669Z,97253.94
2023-04-10T02:31:49.944Z,97258.91
2023-04-10T02:34:16.203Z,97259.59
2023-04-10T02:36:42.498Z,97256.94
2023-04-10T02:39:08.776Z,97252.41
2023-04-10T02:41:35.040Z,97244.63
2023-04-10T02:44:01.370Z,97243.91
2023-04-10T02:46:27.728Z,97250.53
2023-04-10T02:48:54.041Z,97241.69
2023-04-10T02:51:20.326Z,97244.00
2023-04-10T02:53:46.569Z,97246.09
2023-04-10T02:56:12.852Z,97244.25
2023-04-10T02:58:39.154Z,97243.88
2023-04-10T03:01:05.418Z,97248.03
2023-04-10T03:03:31.808Z,97248.63
2023-04-10T03:05:58.230Z,97248.03
2023-04-10T03:08:24.486Z,97250.69
2023-04-10T03:10:50.743Z,97244.66
2023-04-10T03:13:17.007Z,97240.44
2023-04-10T03:15:43.269Z,97249.47
2023-04-10T03:18:09.653Z,97247.25
2023-04-10T03:20:36.041Z,97246.09
2023-04-10T03:23:02.350Z,97253.72
2023-04-10T03:25:28.621Z,97253.00
2023-04-10T03:27:54.882Z,97255.22
2023-04-10T03:30:21.163Z,97251.34
2023-04-10T03:32:47.415Z,97247.28
2023-04-10T03:35:13.669Z,97243.25
2023-04-10T03:37:39.938Z,97242.44
2023-04-10T03:40:06.245Z,97251.47
2023-04-10T03:42:32.715Z,97247.78
2023-04-10T03:44:59.049Z,97249.69
2023-04-10T03:47:25.354Z,97246.22
2023-04-10T03:49:51.633Z,97250.16
2023-04-10T03:52:17.896Z,97253.84
2023-04-10T03:54:44.164Z,97252.59
2023-04-10T03:57:10.435Z,97251.78
2023-04-10T03:59:38.965Z,97253.19
2023-04-10T04:02:05.481Z,97251.41
2023-04-10T04:04:31.836Z,97250.63
2023-04-10T04:06:58.180Z,97251.91
2023-04-10T04:09:24.463Z,97246.19
2023-04-10T04:11:50.725Z,97255.81
2023-04-10T04:14:16.993Z,97258.09
2023-04-10T04:16:43.259Z,97252.41
2023-04-10T04:19:09.518Z,97255.06
2023-04-10T04:21:35.798Z,97254.41
2023-04-10T04:24:02.073Z,97257.53
2023-04-10T04:26:28.337Z,97265.28
2023-04-10T04:28:54.586Z,97257.97
2023-04-10T04:31:20.861Z,97258.34
2023-04-10T04:33:47.168Z,97254.25
2023-04-10T04:36:13.467Z,97263.06
2023-04-10T04:38:39.753Z,97256.94
2023-04-10T04:41:06.055Z,97262.69
2023-04-10T04:43:32.399Z,97271.50
2023-04-10T04:45:58.724Z,97266.16
2023-04-10T04:48:25.062Z,97269.28
2023-04-10T04:50:51.386Z,97260.47
2023-04-10T04:53:17.681Z,97275.88
2023-04-10T04:55:44.060Z,97275.50
2023-04-10T04:58:10.347Z,97279.84
2023-04-10T05:00:36.612Z,97268.94
2023-04-10T05:03:02.998Z,97276.63
2023-04-10T05:05:29.437Z,97282.84
2023-04-10T05:07:55.751Z,97284.53
2023-04-10T05:10:22.009Z,97279.69
2023-04-10T05:12:48.275Z,97274.66
2023-04-10T05:15:14.534Z,97274.91
2023-04-10T05:17:40.834Z,97285.00
2023-04-10T05:20:07.147Z,97277.44
2023-04-10T05:22:33.409Z,97278.25
2023-04-10T05:24:59.674Z,97279.50
2023-04-10T05:27:25.931Z,97276.63
2023-04-10T05:29:52.280Z,97274.19
2023-04-10T05:32:18.613Z,97275.22
2023-04-10T05:34:44.916Z,97275.22
2023-04-10T05:37:11.188Z,97272.16
2023-04-10T05:39:37.462Z,97271.53
2023-04-10T05:42:03.720Z,97269.06
2023-04-10T05:44:29.973Z,97271.94
2023-04-10T05:46:56.237Z,97271.75
2023-04-10T05:49:22.552Z,97271.75
2023-04-10T05:51:48.834Z,97286.88
2023-04-10T05:54:15.077Z,97283.63
2023-04-10T05:56:41.371Z,97281.38
2023-04-10T05:59:07.648Z,97288.34
2023-04-10T06:01:33.939Z,97284.06
2023-04-10T06:04:00.481Z,97282.81
2023-04-10T06:06:26.912Z,97278.69
2023-04-10T06:08:53.589Z,97279.69
2023-04-10T06:11:20.043Z,97281.47
2023-04-10T06:13:46.316Z,97286.97
2023-04-10T06:16:12.640Z,97288.56
2023-04-10T06:18:38.915Z,97288.50
2023-04-10T06:21:05.201Z,97288.25
2023-04-10T06:23:31.477Z,97295.97
2023-04-10T06:25:57.739Z,97291.38
2023-04-10T06:28:24.036Z,97299.09
2023-04-10T06:30:50.363Z,97293.50
2023-04-10T06:33:16.615Z,97294.25
2023-04-10T06:35:42.925Z,97296.88
2023-04-10T06:38:09.185Z,97296.22
2023-04-10T06:40:35.500Z,97302.72
2023-04-10T06:43:01.809Z,97301.84
2023-04-10T06:45:28.126Z,97310.81
2023-04-10T06:47:54.513Z,97306.66
2023-04-10T06:50:20.826Z,97309.47
2023-04-10T06:52:47.108Z,97315.38
2023-04-10T06:55:13.388Z,97315.75
2023-04-10T06:57:39.669Z,97310.56
2023-04-10T07:00:05.941Z,97311.28
2023-04-10T07:02:32.253Z,97313.28
2023-04-10T07:04:58.516Z,97307.28
2023-04-10T07:07:24.788Z,97302.91
2023-04-10T07:09:51.092Z,97307.78
2023-04-10T07:12:17.338Z,97314.44
2023-04-10T07:14:43.611Z,97308.66
2023-04-10T07:17:09.916Z,97313.91
2023-04-10T07:19:36.173Z,97307.69
2023-04-10T07:22:02.437Z,97313.97
2023-04-10T07:24:28.716Z,97312.38
2023-04-10T07:26:55.007Z,97319.84
2023-04-10T07:29:21.286Z,97318.94
2023-04-10T07:31:47.599Z,97318.41
2023-04-10T07:34:13.963Z,97322.13
2023-04-10T07:36:40.221Z,97316.13
2023-04-10T07:39:06.512Z,97311.94
2023-04-10T07:41:32.772Z,97311.84
2023-04-10T07:43:59.066Z,97308.84
2023-04-10T07:46:25.365Z,97305.03
2023-04-10T07:48:51.774Z,97304.91
2023-04-10T07:51:18.250Z,97315.97
2023-04-10T07:53:44.510Z,97311.91
2023-04-10T07:56:10.831Z,97306.13
2023-04-10T07:58:37.093Z,97308.31
2023-04-10T08:01:03.354Z,97306.34
2023-04-10T08:03:29.713Z,97306.94
2023-04-10T08:05:56.039Z,97310.88
2023-04-10T08:08:22.297Z,97307.47
2023-04-10T08:10:48.597Z,97310.88
2023-04-10T08:13:14.886Z,97313.06
2023-04-10T08:15:41.166Z,97316.53
2023-04-10T08:18:07.477Z,97313.75
2023-04-10T08:20:33.746Z,97310.47
2023-04-10T08:23:12.435Z,97307.91
2023-04-10T08:25:45.829Z,97310.56
2023-04-10T08:28:12.089Z,97308.38
2023-04-10T08:30:38.378Z,97309.66
2023-04-10T08:33:04.751Z,97310.09
2023-04-10T08:35:31.138Z,97307.06
2023-04-10T08:38:11.538Z,97301.00
2023-04-10T08:40:39.361Z,97300.88
2023-04-10T08:43:05.629Z,97304.69
2023-04-10T08:45:31.866Z,97306.69
2023-04-10T08:47:58.151Z,97300.59
2023-04-10T08:50:24.428Z,97298.69
2023-04-10T08:52:50.702Z,97301.75
2023-04-10T08:55:16.967Z,97297.47
2023-04-10T08:57:48.038Z,97302.31
2023-04-10T09:03:06.866Z,97303.31
2023-04-10T09:05:33.219Z,97301.03
2023-04-10T09:07:59.482Z,97307.28
2023-04-10T09:10:25.787Z,97306.66
2023-04-10T09:12:53.085Z,97304.00
2023-04-10T09:15:19.346Z,97302.47
2023-04-10T09:17:45.621Z,97301.69
2023-04-10T09:20:11.919Z,97297.91
2023-04-10T09:22:38.201Z,97294.91
2023-04-10T09:25:04.493Z,97290.53
2023-04-10T09:27:30.824Z,97289.66
2023-04-10T09:29:57.135Z,97280.47
2023-04-10T09:32:23.503Z,97286.72
2023-04-10T09:34:49.813Z,97284.72
2023-04-10T09:37:16.069Z,97276.41
2023-04-10T09:39:42.349Z,97275.16
2023-04-10T09:42:08.646Z,97271.97
2023-04-10T09:44:34.935Z,97283.19
2023-04-10T09:47:01.253Z,97275.47
2023-04-10T09:49:27.572Z,97274.88
2023-04-10T09:51:53.882Z,97275.19
2023-04-10T09:54:20.147Z,97278.94
2023-04-10T09:56:46.442Z,97277.16
2023-04-10T09:59:12.713Z,97275.66
2023-04-10T10:01:39.119Z,97271.75
2023-04-10T10:04:05.425Z,97266.38
2023-04-10T10:06:31.701Z,97272.31
2023-04-10T10:08:57.984Z,97267.94
2023-04-10T10:11:24.245Z,97266.63
2023-04-10T10:13:50.509Z,97263.94
2023-04-10T10:16:16.844Z,97260.75
2023-04-10T10:18:43.106Z,97254.44
2023-04-10T10:21:09.371Z,97244.25
2023-04-10T10:23:35.671Z,97248.81
2023-04-10T10:26:03.271Z,97249.06
2023-04-10T10:28:30.145Z,97244.88
2023-04-10T10:30:56.416Z,97240.44
2023-04-10T10:33:22.659Z,97238.94
2023-04-10T10:35:48.928Z,97240.06
2023-04-10T10:38:15.262Z,97239.56
2023-04-10T10:40:41.588Z,97232.56
2023-04-10T10:43:07.858Z,97230.88
2023-04-10T10:45:34.150Z,97223.13
2023-04-10T10:48:00.498Z,97228.31
2023-04-10T10:50:26.799Z,97229.28
2023-04-10T10:52:53.087Z,97229.53
2023-04-10T10:55:19.337Z,97221.47
2023-04-10T10:57:45.641Z,97221.06
2023-04-10T11:00:11.920Z,97222.97
2023-04-10T11:02:38.460Z,97223.03
2023-04-10T11:05:04.804Z,97219.53
2023-04-10T11:07:31.061Z,97219.56
2023-04-10T11:09:57.354Z,97222.31
2023-04-10T11:12:23.640Z,97220.72
2023-04-10T11:14:49.915Z,97218.59
2023-04-10T11:17:16.203Z,97226.16
2023-04-10T11:19:42.507Z,97226.41
2023-04-10T11:22:09.028Z,97226.19
2023-04-10T11:24:35.488Z,97230.28
2023-04-10T11:27:01.754Z,97226.44
2023-04-10T11:29:28.030Z,97227.00
2023-04-10T11:31:54.339Z,97231.34
2023-04-10T11:34:20.650Z,97227.03
2023-04-10T11:36:46.918Z,97229.28
2023-04-10T11:39:13.217Z,97220.88
2023-04-10T11:41:39.562Z,97220.63
2023-04-10T11:44:05.838Z,97209.09
2023-04-10T11:46:32.279Z,97206.50
2023-04-10T11:48:58.689Z,97200.34
2023-04-10T11:51:24.969Z,97189.44
2023-04-10T11:53:51.223Z,97191.94
2023-04-10T11:56:17.485Z,97190.34
2023-04-10T11:58:43.797Z,97194.84
2023-04-10T12:01:10.090Z,97196.53
2023-04-10T12:03:36.465Z,97194.19
2023-04-10T12:06:02.932Z,97193.63
2023-04-10T12:08:29.252Z,97197.63
2023-04-10T12:10:55.525Z,97198.69
2023-04-10T12:13:21.819Z,97197.13
2023-04-10T12:15:48.140Z,97191.28
2023-04-10T12:18:14.448Z,97201.28
2023-04-10T12:20:40.713Z,97210.44
2023-04-10T12:23:06.975Z,97203.50
2023-04-10T12:25:33.300Z,97196.66
2023-04-10T12:27:59.597Z,97179.75
2023-04-10T12:30:25.853Z,97180.34
2023-04-10T12:32:52.222Z,97172.75
2023-04-10T12:35:18.546Z,97179.22
2023-04-10T12:37:44.825Z,97173.34
2023-04-10T12:40:11.123Z,97171.22
2023-04-10T12:42:37.422Z,97161.25
2023-04-10T12:45:03.692Z,97156.97
2023-04-10T12:47:30.007Z,97160.47
2023-04-10T12:49:56.310Z,97162.34
2023-04-10T12:52:22.577Z,97155.06
2023-04-10T12:54:48.883Z,97154.50
2023-04-10T12:57:15.173Z,97144.25
2023-04-10T12:59:41.494Z,97146.41
2023-04-10T13:02:07.812Z,97150.16
2023-04-10T13:04:34.218Z,97141.28
2023-04-10T13:07:00.505Z,97136.41
2023-04-10T13:09:26.803Z,97134.53
2023-04-10T13:11:53.065Z,97131.00
2023-04-10T13:14:19.475Z,97134.25
2023-04-10T13:16:45.775Z,97140.72
2023-04-10T13:19:12.120Z,97125.09
2023-04-10T13:21:38.388Z,97123.97
2023-04-10T13:24:04.683Z,97127.75
2023-04-10T13:26:30.960Z,97122.88
2023-04-10T13:28:57.378Z,97118.03
2023-04-10T13:31:23.770Z,97118.84
2023-04-10T13:33:50.029Z,97121.00
2023-04-10T13:36:16.448Z,97127.75
2023-04-10T13:38:42.797Z,97118.31
2023-04-10T13:41:09.051Z,97113.19
2023-04-10T13:43:35.321Z,97114.00
2023-04-10T13:46:01.585Z,97115.03
2023-04-10T13:48:37.278Z,97110.72
2023-04-10T13:51:06.163Z,97110.97
2023-04-10T13:53:32.424Z,97113.63
2023-04-10T13:55:58.688Z,97104.47
2023-04-10T13:58:24.974Z,97112.22
2023-04-10T14:00:51.240Z,97121.09
2023-04-10T14:03:17.747Z,97115.13
2023-04-10T14:05:44.097Z,97120.53
2023-04-10T14:08:10.357Z,97118.91
2023-04-10T14:10:36.630Z,97117.59
2023-04-10T14:13:02.900Z,97114.09
2023-04-10T14:15:29.159Z,97116.81
2023-04-10T14:17:55.453Z,97117.09
2023-04-10T14:20:21.758Z,97111.44
2023-04-10T14:22:48.038Z,97102.50
2023-04-10T14:25:14.317Z,97108.75
2023-04-10T14:27:40.617Z,97103.13
2023-04-10T14:30:06.982Z,97102.81
2023-04-10T14:32:33.384Z,97099.59
2023-04-10T14:34:59.692Z,97099.03
2023-04-10T14:37:25.981Z,97091.50
2023-04-10T14:39:52.254Z,97095.38
2023-04-10T14:42:18.514Z,97084.91
2023-04-10T14:44:44.804Z,97092.19
2023-04-10T14:47:11.081Z,97090.56
2023-04-10T14:49:37.407Z,97088.41
2023-04-10T14:52:03.680Z,97088.97
2023-04-10T14:54:29.935Z,97083.81
2023-04-10T14:56:56.315Z,97086.81
2023-04-10T14:59:22.593Z,97078.22
2023-04-10T15:01:49.088Z,97076.91
2023-04-10T15:04:15.513Z,97075.56
2023-04-10T15:06:41.795Z,97077.19
2023-04-10T15:09:08.075Z,97068.84
2023-04-10T15:11:34.339Z,97068.81
2023-04-10T15:14:00.589Z,97069.09
2023-04-10T15:16:26.920Z,97063.72
2023-04-10T15:18:53.233Z,97067.50
2023-04-10T15:21:19.488Z,97071.28
2023-04-10T15:23:45.779Z,97066.97
2023-04-10T15:26:12.036Z,97059.41
2023-04-10T15:28:38.283Z,97052.41
2023-04-10T15:31:04.571Z,97051.06
2023-04-10T15:33:30.849Z,97053.75
2023-04-10T15:35:57.197Z,97054.03
2023-04-10T15:38:23.484Z,97050.53
2023-04-10T15:40:49.749Z,97051.06
2023-04-10T15:43:16.013Z,97047.28
2023-04-10T15:45:42.272Z,97051.59
2023-04-10T15:48:08.528Z,97048.63
2023-04-10T15:50:34.775Z,97039.47
2023-04-10T15:53:01.014Z,97045.13
2023-04-10T15:55:27.283Z,97051.88
2023-04-10T15:57:53.539Z,97051.88
2023-04-10T16:00:19.806Z,97048.09
2023-04-10T16:02:46.321Z,97039.47
2023-04-10T16:05:12.733Z,97044.06
2023-04-10T16:07:39.045Z,97039.75
2023-04-10T16:10:05.412Z,97051.59
2023-04-10T16:12:31.756Z,97057.53
2023-04-10T16:14:58.023Z,97053.22
2023-04-10T16:17:24.307Z,97038.38
2023-04-10T16:19:50.601Z,97033.78
2023-04-10T16:22:16.902Z,97031.66
2023-04-10T16:24:43.198Z,97029.22
2023-04-10T16:27:09.467Z,97028.16
2023-04-10T16:29:35.742Z,97026.78
2023-04-10T16:32:02.037Z,97023.56
2023-04-10T16:34:28.295Z,97027.34
2023-04-10T16:36:54.569Z,97025.19
2023-04-10T16:39:20.823Z,97032.72
2023-04-10T16:41:47.098Z,97024.38
2023-04-10T16:44:13.368Z,97034.09
2023-04-10T16:46:39.657Z,97035.44
2023-04-10T16:49:05.964Z,97041.38
2023-04-10T16:51:32.258Z,97051.06
2023-04-10T16:53:58.560Z,97044.34
2023-04-10T16:56:24.876Z,97051.06
2023-04-10T16:58:51.149Z,97043.25
2023-04-10T17:01:17.444Z,97040.84
2023-04-10T17:03:43.810Z,97039.50
2023-04-10T17:06:10.225Z,97042.47
2023-04-10T17:08:36.476Z,97052.97
2023-04-10T17:11:02.760Z,97050.81
2023-04-10T17:13:29.044Z,97057.28
2023-04-10T17:15:55.332Z,97062.94
2023-04-10T17:18:21.633Z,97065.91
2023-04-10T17:20:48.366Z,97059.16
2023-04-10T17:23:14.729Z,97046.50
2023-04-10T17:25:41.072Z,97043.28
2023-04-10T17:28:07.463Z,97034.38
2023-04-10T17:30:33.717Z,97041.66
2023-04-10T17:33:00.027Z,97038.97
2023-04-10T17:35:26.312Z,97038.44
2023-04-10T17:37:52.617Z,97031.97
2023-04-10T17:40:18.882Z,97035.72
2023-04-10T17:42:45.151Z,97023.34
2023-04-10T17:45:11.402Z,97018.22
2023-04-10T17:47:37.708Z,97012.84
2023-04-10T17:50:04.049Z,97017.41
2023-04-10T17:52:30.330Z,97006.66
2023-04-10T17:54:56.609Z,97002.84
2023-04-10T17:57:22.859Z,97013.09
2023-04-10T17:59:49.154Z,97006.88
2023-04-10T18:02:15.541Z,97012.28
2023-04-10T18:04:41.861Z,97011.75
2023-04-10T18:07:08.134Z,97010.13
2023-04-10T18:09:34.404Z,97024.94
2023-04-10T18:12:00.678Z,97024.38
2023-04-10T18:14:26.951Z,97029.22
2023-04-10T18:16:53.253Z,97017.38
2023-04-10T18:19:19.538Z,97028.41
2023-04-10T18:21:45.815Z,97024.13
2023-04-10T18:24:12.161Z,97020.06
2023-04-10T18:26:38.490Z,97023.84
2023-04-10T18:29:04.771Z,97021.41
2023-04-10T18:31:31.063Z,97032.19
2023-04-10T18:34:07.088Z,97029.47
2023-04-10T18:36:34.802Z,97022.75
2023-04-10T18:39:01.059Z,97033.25
2023-04-10T18:41:27.324Z,97036.22
2023-04-10T18:44:01.809Z,97053.72
2023-04-10T18:46:31.475Z,97055.06
2023-04-10T18:48:57.733Z,97063.66
2023-04-10T18:51:24.008Z,97073.63
2023-04-10T18:53:50.270Z,97068.50
2023-04-10T18:56:16.555Z,97065.28
2023-04-10T18:58:42.827Z,97074.69
2023-04-10T19:01:09.106Z,97072.28
2023-04-10T19:03:35.590Z,97072.53
2023-04-10T19:06:02.002Z,97079.81
2023-04-10T19:08:28.288Z,97087.06
2023-04-10T19:10:54.561Z,97080.88
2023-04-10T19:13:20.801Z,97084.63
2023-04-10T19:15:47.167Z,97083.28
2023-04-10T19:18:14.974Z,97084.09
2023-04-10T19:20:52.182Z,97093.25
2023-04-10T19:23:19.713Z,97092.97
2023-04-10T19:25:46.008Z,97095.94
2023-04-10T19:28:12.330Z,97087.84
2023-04-10T19:30:38.591Z,97094.06
2023-04-10T19:33:04.896Z,97094.06
2023-04-10T19:35:31.241Z,97096.47
2023-04-10T19:37:57.548Z,97094.59
2023-04-10T19:40:23.861Z,97099.72
2023-04-10T19:42:50.160Z,97093.53
2023-04-10T19:45:16.424Z,97092.44
2023-04-10T19:47:42.778Z,97079.81
2023-04-10T19:50:09.101Z,97052.88
2023-04-10T19:52:35.362Z,97055.84
2023-04-10T19:55:01.653Z,97072.00
2023-04-10T19:57:27.971Z,97067.69
2023-04-10T19:59:54.308Z,97078.72
2023-04-10T20:02:20.642Z,97078.72
2023-04-10T20:04:48.659Z,97093.50
2023-04-10T20:07:15.260Z,97090.00
2023-04-10T20:09:41.531Z,97081.38
2023-04-10T20:12:07.805Z,97085.97
2023-04-10T20:14:34.072Z,97095.91
2023-04-10T20:17:00.354Z,97098.06
2023-04-10T20:19:26.630Z,97103.72
2023-04-10T20:21:52.892Z,97096.44
2023-04-10T20:24:19.298Z,97098.59
2023-04-10T20:26:45.629Z,97095.09
2023-04-10T20:29:11.933Z,97095.34
2023-04-10T20:31:38.226Z,97093.75
2023-04-10T20:34:04.547Z,97086.47
2023-04-10T20:36:30.802Z,97083.25
2023-04-10T20:38:57.385Z,97085.94
2023-04-10T20:41:25.831Z,97082.69
2023-04-10T20:43:52.671Z,97091.84
2023-04-10T20:46:18.955Z,97077.84
2023-04-10T20:48:45.236Z,97076.50
2023-04-10T20:51:11.525Z,97068.13
2023-04-10T20:53:37.789Z,97067.06
2023-04-10T20:56:06.209Z,97069.47
2023-04-10T20:58:32.763Z,97075.94
2023-04-10T21:00:59.082Z,97071.09
2023-04-10T21:03:25.730Z,97072.44
2023-04-10T21:05:53.716Z,97067.63
2023-04-10T21:08:20.339Z,97058.47
2023-04-10T21:10:46.620Z,97058.75
2023-04-10T21:13:12.925Z,97058.22
2023-04-10T21:15:39.187Z,97058.50
2023-04-10T21:18:05.453Z,97059.56
2023-04-10T21:20:31.719Z,97064.94
2023-04-10T21:22:58.091Z,97062.50
2023-04-10T21:25:24.381Z,97076.50
2023-04-10T21:27:50.652Z,97069.22
2023-04-10T21:30:16.922Z,97075.69
2023-04-10T21:32:43.200Z,97085.09
2023-04-10T21:35:09.496Z,97085.34
2023-04-10T21:37:35.785Z,97072.97
2023-04-10T21:40:02.024Z,97077.84
2023-04-10T21:42:28.311Z,97083.78
2023-04-10T21:44:54.578Z,97069.50
2023-04-10T21:47:20.984Z,97071.13
2023-04-10T21:49:47.238Z,97065.19
2023-04-10T21:52:13.475Z,97060.91
2023-04-10T21:54:39.740Z,97061.97
2023-04-10T21:57:06.041Z,97064.66
2023-04-10T21:59:32.311Z,97054.16
2023-04-10T22:01:58.590Z,97039.63
2023-04-10T22:04:24.913Z,97034.81
2023-04-10T22:06:51.214Z,97029.41
2023-04-10T22:09:17.484Z,97018.13
2023-04-10T22:11:43.794Z,97001.72
2023-04-10T22:14:16.491Z,96986.13
2023-04-10T22:16:44.558Z,96997.97
2023-04-10T22:19:10.944Z,96994.75
2023-04-10T22:21:37.210Z,96983.16
2023-04-10T22:24:03.500Z,96992.03
2023-04-10T22:26:29.756Z,96984.78
2023-04-10T22:28:56.135Z,96982.09
2023-04-10T22:31:22.531Z,96983.16
2023-04-10T22:33:48.927Z,96980.47
2023-04-10T22:36:15.212Z,96985.88
2023-04-10T22:38:41.470Z,96990.72
2023-04-10T22:41:07.752Z,96982.09
2023-04-10T22:43:34.021Z,96994.75
2023-04-10T22:46:00.320Z,96999.59
2023-04-10T22:48:26.688Z,97006.59
2023-04-10T22:50:53.038Z,96998.53
2023-04-10T22:53:19.368Z,97010.91
2023-04-10T22:55:45.650Z,97012.50
2023-04-10T22:58:11.943Z,97013.03
2023-04-10T23:00:38.232Z,97023.00
2023-04-10T23:03:04.690Z,97012.78
2023-04-10T23:05:31.103Z,97010.09
2023-04-10T23:07:57.460Z,96998.25
2023-04-10T23:10:23.748Z,97004.72
2023-04-10T23:12:49.988Z,96999.34
2023-04-10T23:15:16.249Z,96983.19
2023-04-10T23:17:42.633Z,96983.72
2023-04-10T23:20:08.932Z,96967.03
2023-04-10T23:22:35.211Z,96967.59
2023-04-10T23:25:01.632Z,96964.88
2023-04-10T23:27:27.979Z,96970.00
2023-04-10T23:29:54.274Z,96977.81
2023-04-10T23:32:20.543Z,96981.31
2023-04-10T23:34:46.805Z,96960.03
2023-04-10T23:37:13.100Z,96950.63
2023-04-10T23:39:39.380Z,96946.84
2023-04-10T23:42:05.635Z,96939.84
2023-04-10T23:44:31.895Z,96935.53
2023-04-10T23:46:58.184Z,96934.47
2023-04-10T23:49:24.460Z,96923.19
2023-04-10T23:51:50.701Z,96920.75
2023-04-10T23:54:16.992Z,96921.03
2023-04-10T23:56:43.288Z,96933.94
2023-04-10T23:59:09.592Z,96925.59
